sensor_id;sensor_type;location;lat;lon;timestamp;P1;durP1;ratioP1;P2;durP2;ratioP2
39190;SDS011;24916;51.676;6.614;2024-03-07T00:00:07;8.00;;;7.20;;
39190;SDS011;24916;51.676;6.614;2024-03-07T00:02:40;7.90;;;6.68;;
39190;SDS011;24916;51.676;6.614;2024-03-07T00:05:05;7.95;;;7.15;;
39190;SDS011;24916;51.676;6.614;2024-03-07T00:07:30;8.02;;;7.25;;
39190;SDS011;24916;51.676;6.614;2024-03-07T00:09:55;8.57;;;7.47;;
39190;SDS011;24916;51.676;6.614;2024-03-07T00:12:21;7.88;;;6.72;;
39190;SDS011;24916;51.676;6.614;2024-03-07T00:14:47;8.57;;;6.90;;
39190;SDS011;24916;51.676;6.614;2024-03-07T00:17:13;7.77;;;6.97;;
39190;SDS011;24916;51.676;6.614;2024-03-07T00:19:38;7.60;;;6.82;;
39190;SDS011;24916;51.676;6.614;2024-03-07T00:22:04;7.47;;;6.72;;
39190;SDS011;24916;51.676;6.614;2024-03-07T00:24:29;7.57;;;6.73;;
39190;SDS011;24916;51.676;6.614;2024-03-07T00:26:55;7.37;;;6.67;;
39190;SDS011;24916;51.676;6.614;2024-03-07T00:29:22;7.28;;;6.57;;
39190;SDS011;24916;51.676;6.614;2024-03-07T00:31:47;7.97;;;7.18;;
39190;SDS011;24916;51.676;6.614;2024-03-07T00:34:14;8.15;;;6.95;;
39190;SDS011;24916;51.676;6.614;2024-03-07T00:36:41;7.88;;;7.07;;
39190;SDS011;24916;51.676;6.614;2024-03-07T00:39:07;8.02;;;7.22;;
39190;SDS011;24916;51.676;6.614;2024-03-07T00:41:37;7.57;;;6.85;;
39190;SDS011;24916;51.676;6.614;2024-03-07T00:44:02;7.38;;;6.60;;
39190;SDS011;24916;51.676;6.614;2024-03-07T00:46:28;9.23;;;7.43;;
39190;SDS011;24916;51.676;6.614;2024-03-07T00:48:53;8.03;;;7.30;;
39190;SDS011;24916;51.676;6.614;2024-03-07T00:51:18;8.10;;;7.30;;
39190;SDS011;24916;51.676;6.614;2024-03-07T00:53:43;8.88;;;7.43;;
39190;SDS011;24916;51.676;6.614;2024-03-07T00:56:08;8.10;;;7.30;;
39190;SDS011;24916;51.676;6.614;2024-03-07T00:58:34;8.18;;;7.38;;
39190;SDS011;24916;51.676;6.614;2024-03-07T01:01:00;8.35;;;7.38;;
39190;SDS011;24916;51.676;6.614;2024-03-07T01:03:26;8.75;;;7.80;;
39190;SDS011;24916;51.676;6.614;2024-03-07T01:05:52;8.43;;;7.63;;
39190;SDS011;24916;51.676;6.614;2024-03-07T01:08:17;8.20;;;7.38;;
39190;SDS011;24916;51.676;6.614;2024-03-07T01:10:43;7.82;;;7.05;;
39190;SDS011;24916;51.676;6.614;2024-03-07T01:13:08;8.07;;;7.28;;
39190;SDS011;24916;51.676;6.614;2024-03-07T01:15:40;9.18;;;8.27;;
39190;SDS011;24916;51.676;6.614;2024-03-07T01:18:05;8.68;;;7.78;;
39190;SDS011;24916;51.676;6.614;2024-03-07T01:20:32;8.25;;;7.45;;
39190;SDS011;24916;51.676;6.614;2024-03-07T01:22:57;8.43;;;7.63;;
39190;SDS011;24916;51.676;6.614;2024-03-07T01:25:22;8.30;;;7.47;;
39190;SDS011;24916;51.676;6.614;2024-03-07T01:27:48;8.02;;;7.32;;
39190;SDS011;24916;51.676;6.614;2024-03-07T01:30:14;8.40;;;7.60;;
39190;SDS011;24916;51.676;6.614;2024-03-07T01:32:40;9.23;;;8.23;;
39190;SDS011;24916;51.676;6.614;2024-03-07T01:35:05;8.17;;;7.30;;
39190;SDS011;24916;51.676;6.614;2024-03-07T01:37:33;7.95;;;6.90;;
39190;SDS011;24916;51.676;6.614;2024-03-07T01:39:58;8.10;;;7.30;;
39190;SDS011;24916;51.676;6.614;2024-03-07T01:42:23;8.40;;;7.60;;
39190;SDS011;24916;51.676;6.614;2024-03-07T01:44:50;8.32;;;7.45;;
39190;SDS011;24916;51.676;6.614;2024-03-07T01:47:15;8.73;;;7.85;;
39190;SDS011;24916;51.676;6.614;2024-03-07T01:49:41;8.45;;;7.47;;
39190;SDS011;24916;51.676;6.614;2024-03-07T01:52:06;8.77;;;7.43;;
39190;SDS011;24916;51.676;6.614;2024-03-07T01:54:32;8.70;;;7.53;;
39190;SDS011;24916;51.676;6.614;2024-03-07T01:56:57;8.30;;;7.50;;
39190;SDS011;24916;51.676;6.614;2024-03-07T01:59:23;8.25;;;7.38;;
39190;SDS011;24916;51.676;6.614;2024-03-07T02:01:49;8.00;;;7.28;;
39190;SDS011;24916;51.676;6.614;2024-03-07T02:04:16;8.82;;;7.93;;
39190;SDS011;24916;51.676;6.614;2024-03-07T02:06:41;8.52;;;7.72;;
39190;SDS011;24916;51.676;6.614;2024-03-07T02:09:06;7.75;;;6.95;;
39190;SDS011;24916;51.676;6.614;2024-03-07T02:11:32;8.20;;;7.35;;
39190;SDS011;24916;51.676;6.614;2024-03-07T02:13:57;8.70;;;7.63;;
39190;SDS011;24916;51.676;6.614;2024-03-07T02:16:23;8.38;;;7.53;;
39190;SDS011;24916;51.676;6.614;2024-03-07T02:18:48;8.57;;;7.72;;
39190;SDS011;24916;51.676;6.614;2024-03-07T02:21:13;8.10;;;7.30;;
39190;SDS011;24916;51.676;6.614;2024-03-07T02:23:39;8.13;;;7.32;;
39190;SDS011;24916;51.676;6.614;2024-03-07T02:26:05;8.80;;;8.00;;
39190;SDS011;24916;51.676;6.614;2024-03-07T02:28:31;10.02;;;7.57;;
39190;SDS011;24916;51.676;6.614;2024-03-07T02:30:56;7.67;;;6.97;;
39190;SDS011;24916;51.676;6.614;2024-03-07T02:33:22;9.75;;;7.38;;
39190;SDS011;24916;51.676;6.614;2024-03-07T02:35:48;8.05;;;7.25;;
39190;SDS011;24916;51.676;6.614;2024-03-07T02:38:14;8.98;;;7.47;;
39190;SDS011;24916;51.676;6.614;2024-03-07T02:40:39;8.43;;;7.63;;
39190;SDS011;24916;51.676;6.614;2024-03-07T02:43:04;8.10;;;7.30;;
39190;SDS011;24916;51.676;6.614;2024-03-07T02:45:30;8.55;;;7.75;;
39190;SDS011;24916;51.676;6.614;2024-03-07T02:47:55;8.30;;;7.40;;
39190;SDS011;24916;51.676;6.614;2024-03-07T02:50:21;8.32;;;7.50;;
39190;SDS011;24916;51.676;6.614;2024-03-07T02:52:47;8.90;;;8.00;;
39190;SDS011;24916;51.676;6.614;2024-03-07T02:55:12;7.78;;;7.03;;
39190;SDS011;24916;51.676;6.614;2024-03-07T02:57:38;8.18;;;7.38;;
39190;SDS011;24916;51.676;6.614;2024-03-07T03:00:04;8.50;;;7.70;;
39190;SDS011;24916;51.676;6.614;2024-03-07T03:05:03;8.43;;;7.63;;
39190;SDS011;24916;51.676;6.614;2024-03-07T03:07:31;8.05;;;7.25;;
39190;SDS011;24916;51.676;6.614;2024-03-07T03:09:56;8.53;;;7.17;;
39190;SDS011;24916;51.676;6.614;2024-03-07T03:12:21;8.82;;;7.15;;
39190;SDS011;24916;51.676;6.614;2024-03-07T03:14:47;8.30;;;7.32;;
39190;SDS011;24916;51.676;6.614;2024-03-07T03:17:13;8.00;;;7.18;;
39190;SDS011;24916;51.676;6.614;2024-03-07T03:19:39;8.07;;;7.30;;
39190;SDS011;24916;51.676;6.614;2024-03-07T03:22:05;7.28;;;6.57;;
39190;SDS011;24916;51.676;6.614;2024-03-07T03:24:30;8.30;;;7.15;;
39190;SDS011;24916;51.676;6.614;2024-03-07T03:26:55;8.43;;;7.50;;
39190;SDS011;24916;51.676;6.614;2024-03-07T03:29:21;7.95;;;7.15;;
39190;SDS011;24916;51.676;6.614;2024-03-07T03:31:46;8.02;;;7.05;;
39190;SDS011;24916;51.676;6.614;2024-03-07T03:34:11;7.90;;;7.17;;
39190;SDS011;24916;51.676;6.614;2024-03-07T03:36:36;8.38;;;7.32;;
39190;SDS011;24916;51.676;6.614;2024-03-07T03:39:01;8.30;;;7.50;;
39190;SDS011;24916;51.676;6.614;2024-03-07T03:41:27;7.78;;;7.07;;
39190;SDS011;24916;51.676;6.614;2024-03-07T03:43:52;8.20;;;7.40;;
39190;SDS011;24916;51.676;6.614;2024-03-07T03:46:18;7.47;;;6.78;;
39190;SDS011;24916;51.676;6.614;2024-03-07T03:48:43;7.47;;;6.78;;
39190;SDS011;24916;51.676;6.614;2024-03-07T03:51:08;7.93;;;7.20;;
39190;SDS011;24916;51.676;6.614;2024-03-07T03:53:34;7.90;;;7.10;;
39190;SDS011;24916;51.676;6.614;2024-03-07T03:56:00;7.72;;;7.03;;
39190;SDS011;24916;51.676;6.614;2024-03-07T03:58:25;7.93;;;7.03;;
39190;SDS011;24916;51.676;6.614;2024-03-07T04:00:50;7.95;;;7.10;;
39190;SDS011;24916;51.676;6.614;2024-03-07T04:03:16;8.77;;;7.45;;
39190;SDS011;24916;51.676;6.614;2024-03-07T04:05:41;7.05;;;6.35;;
39190;SDS011;24916;51.676;6.614;2024-03-07T04:08:07;7.63;;;6.93;;
39190;SDS011;24916;51.676;6.614;2024-03-07T04:10:32;8.43;;;7.55;;
39190;SDS011;24916;51.676;6.614;2024-03-07T04:12:58;7.28;;;6.57;;
39190;SDS011;24916;51.676;6.614;2024-03-07T04:15:23;7.45;;;6.75;;
39190;SDS011;24916;51.676;6.614;2024-03-07T04:17:51;7.95;;;7.15;;
39190;SDS011;24916;51.676;6.614;2024-03-07T04:20:17;8.53;;;6.87;;
39190;SDS011;24916;51.676;6.614;2024-03-07T04:22:42;7.35;;;6.65;;
39190;SDS011;24916;51.676;6.614;2024-03-07T04:25:07;7.18;;;6.50;;
39190;SDS011;24916;51.676;6.614;2024-03-07T04:27:33;8.00;;;7.20;;
39190;SDS011;24916;51.676;6.614;2024-03-07T04:30:02;7.28;;;6.57;;
39190;SDS011;24916;51.676;6.614;2024-03-07T04:32:28;8.00;;;7.20;;
39190;SDS011;24916;51.676;6.614;2024-03-07T04:34:54;7.90;;;7.05;;
39190;SDS011;24916;51.676;6.614;2024-03-07T04:37:19;8.05;;;7.28;;
39190;SDS011;24916;51.676;6.614;2024-03-07T04:39:44;7.65;;;6.70;;
39190;SDS011;24916;51.676;6.614;2024-03-07T04:42:10;7.13;;;6.47;;
39190;SDS011;24916;51.676;6.614;2024-03-07T04:44:36;8.00;;;7.03;;
39190;SDS011;24916;51.676;6.614;2024-03-07T04:47:02;7.47;;;6.78;;
39190;SDS011;24916;51.676;6.614;2024-03-07T04:49:27;7.68;;;6.88;;
39190;SDS011;24916;51.676;6.614;2024-03-07T04:51:53;7.53;;;6.32;;
39190;SDS011;24916;51.676;6.614;2024-03-07T04:54:19;7.43;;;6.72;;
39190;SDS011;24916;51.676;6.614;2024-03-07T04:56:45;7.40;;;6.70;;
39190;SDS011;24916;51.676;6.614;2024-03-07T04:59:11;7.18;;;6.47;;
39190;SDS011;24916;51.676;6.614;2024-03-07T05:01:37;8.32;;;7.18;;
39190;SDS011;24916;51.676;6.614;2024-03-07T05:04:02;7.40;;;6.70;;
39190;SDS011;24916;51.676;6.614;2024-03-07T05:06:28;8.15;;;7.15;;
39190;SDS011;24916;51.676;6.614;2024-03-07T05:08:54;6.82;;;6.22;;
39190;SDS011;24916;51.676;6.614;2024-03-07T05:11:19;7.72;;;6.78;;
39190;SDS011;24916;51.676;6.614;2024-03-07T05:13:44;8.07;;;7.23;;
39190;SDS011;24916;51.676;6.614;2024-03-07T05:16:09;7.83;;;7.03;;
39190;SDS011;24916;51.676;6.614;2024-03-07T05:18:34;7.70;;;6.90;;
39190;SDS011;24916;51.676;6.614;2024-03-07T05:21:00;8.03;;;7.17;;
39190;SDS011;24916;51.676;6.614;2024-03-07T05:23:45;7.20;;;6.50;;
39190;SDS011;24916;51.676;6.614;2024-03-07T05:26:10;7.80;;;6.83;;
39190;SDS011;24916;51.676;6.614;2024-03-07T05:28:35;7.93;;;7.13;;
39190;SDS011;24916;51.676;6.614;2024-03-07T05:31:01;8.15;;;7.20;;
39190;SDS011;24916;51.676;6.614;2024-03-07T05:33:29;9.40;;;6.95;;
39190;SDS011;24916;51.676;6.614;2024-03-07T05:35:54;7.68;;;6.88;;
39190;SDS011;24916;51.676;6.614;2024-03-07T05:38:27;7.55;;;6.75;;
39190;SDS011;24916;51.676;6.614;2024-03-07T05:40:53;7.80;;;7.00;;
39190;SDS011;24916;51.676;6.614;2024-03-07T05:43:18;9.00;;;7.18;;
39190;SDS011;24916;51.676;6.614;2024-03-07T05:45:44;8.00;;;7.20;;
39190;SDS011;24916;51.676;6.614;2024-03-07T05:48:14;8.77;;;7.35;;
39190;SDS011;24916;51.676;6.614;2024-03-07T05:50:39;7.35;;;6.65;;
39190;SDS011;24916;51.676;6.614;2024-03-07T05:53:04;18.40;;;7.60;;
39190;SDS011;24916;51.676;6.614;2024-03-07T05:55:29;7.68;;;6.97;;
39190;SDS011;24916;51.676;6.614;2024-03-07T05:57:55;7.57;;;6.88;;
39190;SDS011;24916;51.676;6.614;2024-03-07T06:00:20;8.27;;;7.47;;
39190;SDS011;24916;51.676;6.614;2024-03-07T06:02:52;8.10;;;7.30;;
39190;SDS011;24916;51.676;6.614;2024-03-07T06:05:18;6.80;;;6.10;;
39190;SDS011;24916;51.676;6.614;2024-03-07T06:07:44;8.70;;;7.13;;
39190;SDS011;24916;51.676;6.614;2024-03-07T06:10:12;8.00;;;6.75;;
39190;SDS011;24916;51.676;6.614;2024-03-07T06:12:37;7.30;;;6.60;;
39190;SDS011;24916;51.676;6.614;2024-03-07T06:15:05;7.22;;;6.53;;
39190;SDS011;24916;51.676;6.614;2024-03-07T06:17:31;8.07;;;7.28;;
39190;SDS011;24916;51.676;6.614;2024-03-07T06:19:56;7.75;;;7.05;;
39190;SDS011;24916;51.676;6.614;2024-03-07T06:22:21;7.90;;;7.20;;
39190;SDS011;24916;51.676;6.614;2024-03-07T06:24:47;7.35;;;6.65;;
39190;SDS011;24916;51.676;6.614;2024-03-07T06:27:12;7.73;;;7.03;;
39190;SDS011;24916;51.676;6.614;2024-03-07T06:29:51;8.18;;;7.00;;
39190;SDS011;24916;51.676;6.614;2024-03-07T06:32:18;7.90;;;7.05;;
39190;SDS011;24916;51.676;6.614;2024-03-07T06:34:43;7.03;;;6.35;;
39190;SDS011;24916;51.676;6.614;2024-03-07T06:37:08;7.07;;;6.38;;
39190;SDS011;24916;51.676;6.614;2024-03-07T06:39:34;7.63;;;6.80;;
39190;SDS011;24916;51.676;6.614;2024-03-07T06:42:00;7.75;;;6.95;;
39190;SDS011;24916;51.676;6.614;2024-03-07T06:44:25;7.57;;;6.50;;
39190;SDS011;24916;51.676;6.614;2024-03-07T06:46:51;7.05;;;6.35;;
39190;SDS011;24916;51.676;6.614;2024-03-07T06:49:17;7.88;;;7.10;;
39190;SDS011;24916;51.676;6.614;2024-03-07T06:51:42;8.30;;;6.90;;
39190;SDS011;24916;51.676;6.614;2024-03-07T06:54:07;7.87;;;7.10;;
39190;SDS011;24916;51.676;6.614;2024-03-07T06:56:33;7.72;;;6.93;;
39190;SDS011;24916;51.676;6.614;2024-03-07T06:58:58;6.72;;;6.13;;
39190;SDS011;24916;51.676;6.614;2024-03-07T07:01:24;7.03;;;6.43;;
39190;SDS011;24916;51.676;6.614;2024-03-07T07:03:49;7.45;;;6.68;;
39190;SDS011;24916;51.676;6.614;2024-03-07T07:06:14;8.03;;;6.13;;
39190;SDS011;24916;51.676;6.614;2024-03-07T07:08:40;14.00;;;12.63;;
39190;SDS011;24916;51.676;6.614;2024-03-07T07:11:05;16.30;;;14.70;;
39190;SDS011;24916;51.676;6.614;2024-03-07T07:13:30;17.75;;;16.05;;
39190;SDS011;24916;51.676;6.614;2024-03-07T07:15:56;18.30;;;16.60;;
39190;SDS011;24916;51.676;6.614;2024-03-07T07:18:21;16.85;;;15.23;;
39190;SDS011;24916;51.676;6.614;2024-03-07T07:20:48;17.33;;;15.63;;
39190;SDS011;24916;51.676;6.614;2024-03-07T07:23:14;18.38;;;16.75;;
39190;SDS011;24916;51.676;6.614;2024-03-07T07:25:39;16.15;;;14.57;;
39190;SDS011;24916;51.676;6.614;2024-03-07T07:28:05;16.15;;;14.65;;
39190;SDS011;24916;51.676;6.614;2024-03-07T07:30:32;19.33;;;15.15;;
39190;SDS011;24916;51.676;6.614;2024-03-07T07:32:58;17.55;;;15.98;;
39190;SDS011;24916;51.676;6.614;2024-03-07T07:35:23;16.48;;;14.70;;
39190;SDS011;24916;51.676;6.614;2024-03-07T07:37:49;16.40;;;14.55;;
39190;SDS011;24916;51.676;6.614;2024-03-07T07:40:16;15.60;;;14.20;;
39190;SDS011;24916;51.676;6.614;2024-03-07T07:42:47;14.95;;;13.65;;
39190;SDS011;24916;51.676;6.614;2024-03-07T07:45:14;14.82;;;13.35;;
39190;SDS011;24916;51.676;6.614;2024-03-07T07:50:08;13.32;;;12.13;;
39190;SDS011;24916;51.676;6.614;2024-03-07T07:52:39;15.57;;;14.07;;
39190;SDS011;24916;51.676;6.614;2024-03-07T07:55:05;13.38;;;12.07;;
39190;SDS011;24916;51.676;6.614;2024-03-07T07:57:30;13.32;;;12.00;;
39190;SDS011;24916;51.676;6.614;2024-03-07T07:59:55;12.57;;;11.38;;
39190;SDS011;24916;51.676;6.614;2024-03-07T08:02:20;13.07;;;11.77;;
39190;SDS011;24916;51.676;6.614;2024-03-07T08:04:47;11.82;;;9.98;;
39190;SDS011;24916;51.676;6.614;2024-03-07T08:07:14;13.65;;;12.15;;
39190;SDS011;24916;51.676;6.614;2024-03-07T08:09:39;12.70;;;11.02;;
39190;SDS011;24916;51.676;6.614;2024-03-07T08:12:05;12.73;;;11.43;;
39190;SDS011;24916;51.676;6.614;2024-03-07T08:14:31;13.07;;;10.80;;
39190;SDS011;24916;51.676;6.614;2024-03-07T08:16:57;12.68;;;11.15;;
39190;SDS011;24916;51.676;6.614;2024-03-07T08:19:22;12.50;;;11.30;;
39190;SDS011;24916;51.676;6.614;2024-03-07T08:21:49;12.27;;;11.13;;
39190;SDS011;24916;51.676;6.614;2024-03-07T08:24:14;11.95;;;10.85;;
39190;SDS011;24916;51.676;6.614;2024-03-07T08:26:39;12.10;;;10.63;;
39190;SDS011;24916;51.676;6.614;2024-03-07T08:29:09;12.95;;;10.75;;
39190;SDS011;24916;51.676;6.614;2024-03-07T08:31:34;11.68;;;10.63;;
39190;SDS011;24916;51.676;6.614;2024-03-07T08:34:00;10.43;;;9.48;;
39190;SDS011;24916;51.676;6.614;2024-03-07T08:36:25;11.88;;;10.77;;
39190;SDS011;24916;51.676;6.614;2024-03-07T08:38:50;11.50;;;9.80;;
39190;SDS011;24916;51.676;6.614;2024-03-07T08:41:16;11.35;;;10.25;;
39190;SDS011;24916;51.676;6.614;2024-03-07T08:43:42;10.27;;;9.38;;
39190;SDS011;24916;51.676;6.614;2024-03-07T08:46:07;10.50;;;9.60;;
39190;SDS011;24916;51.676;6.614;2024-03-07T08:48:33;10.75;;;9.75;;
39190;SDS011;24916;51.676;6.614;2024-03-07T08:50:58;11.23;;;10.23;;
39190;SDS011;24916;51.676;6.614;2024-03-07T08:53:23;15.53;;;10.23;;
39190;SDS011;24916;51.676;6.614;2024-03-07T08:55:49;12.17;;;11.07;;
39190;SDS011;24916;51.676;6.614;2024-03-07T08:58:15;11.55;;;10.45;;
39190;SDS011;24916;51.676;6.614;2024-03-07T09:00:40;12.27;;;11.13;;
39190;SDS011;24916;51.676;6.614;2024-03-07T09:03:06;12.40;;;11.43;;
39190;SDS011;24916;51.676;6.614;2024-03-07T09:05:34;11.90;;;10.73;;
39190;SDS011;24916;51.676;6.614;2024-03-07T09:07:59;12.38;;;11.27;;
39190;SDS011;24916;51.676;6.614;2024-03-07T09:10:25;12.57;;;11.48;;
39190;SDS011;24916;51.676;6.614;2024-03-07T09:12:54;13.43;;;12.13;;
39190;SDS011;24916;51.676;6.614;2024-03-07T09:15:20;13.20;;;11.95;;
39190;SDS011;24916;51.676;6.614;2024-03-07T09:17:46;12.35;;;11.25;;
39190;SDS011;24916;51.676;6.614;2024-03-07T09:20:13;13.02;;;11.73;;
39190;SDS011;24916;51.676;6.614;2024-03-07T09:22:44;11.82;;;10.57;;
39190;SDS011;24916;51.676;6.614;2024-03-07T09:25:09;11.52;;;10.43;;
39190;SDS011;24916;51.676;6.614;2024-03-07T09:27:35;10.98;;;9.88;;
39190;SDS011;24916;51.676;6.614;2024-03-07T09:30:00;11.00;;;9.90;;
39190;SDS011;24916;51.676;6.614;2024-03-07T09:32:26;10.20;;;9.20;;
39190;SDS011;24916;51.676;6.614;2024-03-07T09:34:53;9.70;;;8.70;;
39190;SDS011;24916;51.676;6.614;2024-03-07T09:37:18;10.00;;;9.00;;
39190;SDS011;24916;51.676;6.614;2024-03-07T09:39:46;10.13;;;9.18;;
39190;SDS011;24916;51.676;6.614;2024-03-07T09:42:12;10.05;;;8.55;;
39190;SDS011;24916;51.676;6.614;2024-03-07T09:44:38;10.18;;;9.18;;
39190;SDS011;24916;51.676;6.614;2024-03-07T09:47:04;8.93;;;8.15;;
39190;SDS011;24916;51.676;6.614;2024-03-07T09:49:30;10.13;;;8.88;;
39190;SDS011;24916;51.676;6.614;2024-03-07T09:51:55;10.52;;;8.50;;
39190;SDS011;24916;51.676;6.614;2024-03-07T09:54:24;9.13;;;8.07;;
39190;SDS011;24916;51.676;6.614;2024-03-07T09:56:50;8.88;;;8.10;;
39190;SDS011;24916;51.676;6.614;2024-03-07T09:59:17;9.38;;;8.55;;
39190;SDS011;24916;51.676;6.614;2024-03-07T10:01:45;10.80;;;8.25;;
39190;SDS011;24916;51.676;6.614;2024-03-07T10:04:12;9.90;;;8.90;;
39190;SDS011;24916;51.676;6.614;2024-03-07T10:06:39;8.65;;;7.40;;
39190;SDS011;24916;51.676;6.614;2024-03-07T10:09:05;8.65;;;7.68;;
39190;SDS011;24916;51.676;6.614;2024-03-07T10:11:31;9.18;;;7.53;;
39190;SDS011;24916;51.676;6.614;2024-03-07T10:13:56;8.45;;;7.50;;
39190;SDS011;24916;51.676;6.614;2024-03-07T10:16:21;9.15;;;7.28;;
39190;SDS011;24916;51.676;6.614;2024-03-07T10:18:48;7.35;;;6.65;;
39190;SDS011;24916;51.676;6.614;2024-03-07T10:21:18;7.13;;;6.43;;
39190;SDS011;24916;51.676;6.614;2024-03-07T10:23:43;7.03;;;6.35;;
39190;SDS011;24916;51.676;6.614;2024-03-07T10:26:09;7.55;;;5.93;;
39190;SDS011;24916;51.676;6.614;2024-03-07T10:28:35;6.20;;;5.60;;
39190;SDS011;24916;51.676;6.614;2024-03-07T10:31:00;6.47;;;5.75;;
39190;SDS011;24916;51.676;6.614;2024-03-07T10:33:28;6.50;;;5.90;;
39190;SDS011;24916;51.676;6.614;2024-03-07T10:35:57;6.82;;;6.13;;
39190;SDS011;24916;51.676;6.614;2024-03-07T10:38:23;6.43;;;5.72;;
39190;SDS011;24916;51.676;6.614;2024-03-07T10:40:49;6.10;;;5.25;;
39190;SDS011;24916;51.676;6.614;2024-03-07T10:43:18;5.85;;;5.32;;
39190;SDS011;24916;51.676;6.614;2024-03-07T10:45:45;5.60;;;5.10;;
39190;SDS011;24916;51.676;6.614;2024-03-07T10:48:13;6.68;;;5.40;;
39190;SDS011;24916;51.676;6.614;2024-03-07T10:53:19;6.05;;;5.30;;
39190;SDS011;24916;51.676;6.614;2024-03-07T11:01:08;5.40;;;4.90;;
39190;SDS011;24916;51.676;6.614;2024-03-07T11:03:36;5.60;;;5.10;;
39190;SDS011;24916;51.676;6.614;2024-03-07T11:06:01;7.05;;;4.57;;
39190;SDS011;24916;51.676;6.614;2024-03-07T11:08:32;5.20;;;4.68;;
39190;SDS011;24916;51.676;6.614;2024-03-07T11:10:57;6.93;;;4.63;;
39190;SDS011;24916;51.676;6.614;2024-03-07T11:13:22;7.00;;;4.93;;
39190;SDS011;24916;51.676;6.614;2024-03-07T11:15:49;6.00;;;5.18;;
39190;SDS011;24916;51.676;6.614;2024-03-07T11:18:16;8.13;;;5.00;;
39190;SDS011;24916;51.676;6.614;2024-03-07T11:20:42;6.75;;;4.40;;
39190;SDS011;24916;51.676;6.614;2024-03-07T11:23:27;6.05;;;4.68;;
39190;SDS011;24916;51.676;6.614;2024-03-07T11:26:03;10.18;;;4.97;;
39190;SDS011;24916;51.676;6.614;2024-03-07T11:28:35;6.10;;;4.65;;
39190;SDS011;24916;51.676;6.614;2024-03-07T11:31:09;6.45;;;5.05;;
39190;SDS011;24916;51.676;6.614;2024-03-07T11:33:37;5.80;;;4.05;;
39190;SDS011;24916;51.676;6.614;2024-03-07T11:36:06;6.38;;;4.38;;
39190;SDS011;24916;51.676;6.614;2024-03-07T11:38:31;5.88;;;4.35;;
39190;SDS011;24916;51.676;6.614;2024-03-07T11:40:59;4.95;;;4.43;;
39190;SDS011;24916;51.676;6.614;2024-03-07T11:43:26;5.15;;;4.28;;
39190;SDS011;24916;51.676;6.614;2024-03-07T11:45:52;6.18;;;4.70;;
39190;SDS011;24916;51.676;6.614;2024-03-07T11:48:18;6.25;;;4.15;;
39190;SDS011;24916;51.676;6.614;2024-03-07T11:50:45;5.15;;;4.28;;
39190;SDS011;24916;51.676;6.614;2024-03-07T11:53:10;8.50;;;4.70;;
39190;SDS011;24916;51.676;6.614;2024-03-07T11:55:36;5.88;;;4.63;;
39190;SDS011;24916;51.676;6.614;2024-03-07T12:00:38;7.20;;;4.53;;
39190;SDS011;24916;51.676;6.614;2024-03-07T12:03:07;4.90;;;4.40;;
39190;SDS011;24916;51.676;6.614;2024-03-07T12:05:32;6.70;;;4.57;;
39190;SDS011;24916;51.676;6.614;2024-03-07T12:07:58;9.60;;;5.00;;
39190;SDS011;24916;51.676;6.614;2024-03-07T12:10:25;8.25;;;4.70;;
39190;SDS011;24916;51.676;6.614;2024-03-07T12:12:50;7.43;;;4.35;;
39190;SDS011;24916;51.676;6.614;2024-03-07T12:15:16;7.50;;;4.53;;
39190;SDS011;24916;51.676;6.614;2024-03-07T12:17:44;5.05;;;4.10;;
39190;SDS011;24916;51.676;6.614;2024-03-07T12:20:11;5.35;;;4.35;;
39190;SDS011;24916;51.676;6.614;2024-03-07T12:22:56;7.05;;;4.82;;
39190;SDS011;24916;51.676;6.614;2024-03-07T12:25:21;6.18;;;4.28;;
39190;SDS011;24916;51.676;6.614;2024-03-07T12:28:03;6.28;;;4.43;;
39190;SDS011;24916;51.676;6.614;2024-03-07T12:30:30;6.78;;;4.85;;
39190;SDS011;24916;51.676;6.614;2024-03-07T12:32:58;6.85;;;4.18;;
39190;SDS011;24916;51.676;6.614;2024-03-07T12:35:23;5.97;;;4.28;;
39190;SDS011;24916;51.676;6.614;2024-03-07T12:37:48;5.72;;;4.65;;
39190;SDS011;24916;51.676;6.614;2024-03-07T12:40:14;5.80;;;4.45;;
39190;SDS011;24916;51.676;6.614;2024-03-07T12:42:50;8.60;;;4.53;;
39190;SDS011;24916;51.676;6.614;2024-03-07T12:45:16;5.43;;;4.15;;
39190;SDS011;24916;51.676;6.614;2024-03-07T12:47:51;5.32;;;4.45;;
39190;SDS011;24916;51.676;6.614;2024-03-07T12:50:19;4.88;;;4.00;;
39190;SDS011;24916;51.676;6.614;2024-03-07T12:52:47;5.35;;;4.43;;
39190;SDS011;24916;51.676;6.614;2024-03-07T12:55:16;4.95;;;3.90;;
39190;SDS011;24916;51.676;6.614;2024-03-07T12:57:43;6.50;;;4.45;;
39190;SDS011;24916;51.676;6.614;2024-03-07T13:00:09;4.95;;;4.45;;
39190;SDS011;24916;51.676;6.614;2024-03-07T13:02:43;5.38;;;4.47;;
39190;SDS011;24916;51.676;6.614;2024-03-07T13:05:10;5.45;;;3.85;;
39190;SDS011;24916;51.676;6.614;2024-03-07T13:07:43;5.82;;;4.35;;
39190;SDS011;24916;51.676;6.614;2024-03-07T13:10:08;5.70;;;4.27;;
39190;SDS011;24916;51.676;6.614;2024-03-07T13:12:34;5.20;;;3.95;;
39190;SDS011;24916;51.676;6.614;2024-03-07T13:14:59;5.97;;;3.67;;
39190;SDS011;24916;51.676;6.614;2024-03-07T13:17:25;4.97;;;4.47;;
39190;SDS011;24916;51.676;6.614;2024-03-07T13:19:50;5.13;;;4.10;;
39190;SDS011;24916;51.676;6.614;2024-03-07T13:22:24;4.88;;;4.38;;
39190;SDS011;24916;51.676;6.614;2024-03-07T13:24:50;4.80;;;3.75;;
39190;SDS011;24916;51.676;6.614;2024-03-07T13:27:15;5.53;;;4.33;;
39190;SDS011;24916;51.676;6.614;2024-03-07T13:29:44;4.90;;;4.03;;
39190;SDS011;24916;51.676;6.614;2024-03-07T13:32:10;4.45;;;3.92;;
39190;SDS011;24916;51.676;6.614;2024-03-07T13:34:37;4.28;;;3.67;;
39190;SDS011;24916;51.676;6.614;2024-03-07T13:37:02;4.43;;;3.80;;
39190;SDS011;24916;51.676;6.614;2024-03-07T13:39:29;5.00;;;4.07;;
39190;SDS011;24916;51.676;6.614;2024-03-07T13:41:54;5.13;;;4.03;;
39190;SDS011;24916;51.676;6.614;2024-03-07T13:44:19;4.65;;;3.95;;
39190;SDS011;24916;51.676;6.614;2024-03-07T13:46:47;4.80;;;4.30;;
39190;SDS011;24916;51.676;6.614;2024-03-07T13:49:12;6.07;;;4.15;;
39190;SDS011;24916;51.676;6.614;2024-03-07T13:51:42;4.80;;;4.03;;
39190;SDS011;24916;51.676;6.614;2024-03-07T13:54:21;5.97;;;4.43;;
39190;SDS011;24916;51.676;6.614;2024-03-07T13:57:08;4.93;;;3.88;;
39190;SDS011;24916;51.676;6.614;2024-03-07T14:23:14;4.30;;;3.75;;
39190;SDS011;24916;51.676;6.614;2024-03-07T14:30:53;4.22;;;3.60;;
39190;SDS011;24916;51.676;6.614;2024-03-07T14:33:29;3.95;;;3.50;;
39190;SDS011;24916;51.676;6.614;2024-03-07T14:36:05;4.38;;;3.30;;
39190;SDS011;24916;51.676;6.614;2024-03-07T14:41:19;3.88;;;3.50;;
39190;SDS011;24916;51.676;6.614;2024-03-07T14:43:47;4.28;;;3.60;;
39190;SDS011;24916;51.676;6.614;2024-03-07T14:46:13;5.40;;;3.92;;
39190;SDS011;24916;51.676;6.614;2024-03-07T14:48:39;4.18;;;3.50;;
39190;SDS011;24916;51.676;6.614;2024-03-07T14:51:06;4.97;;;3.70;;
39190;SDS011;24916;51.676;6.614;2024-03-07T14:53:32;5.40;;;3.75;;
39190;SDS011;24916;51.676;6.614;2024-03-07T14:55:57;4.15;;;3.75;;
39190;SDS011;24916;51.676;6.614;2024-03-07T14:58:24;4.53;;;3.80;;
39190;SDS011;24916;51.676;6.614;2024-03-07T15:00:49;4.57;;;3.90;;
39190;SDS011;24916;51.676;6.614;2024-03-07T15:03:15;4.20;;;3.80;;
39190;SDS011;24916;51.676;6.614;2024-03-07T15:05:42;3.58;;;3.28;;
39190;SDS011;24916;51.676;6.614;2024-03-07T15:08:09;4.13;;;3.72;;
39190;SDS011;24916;51.676;6.614;2024-03-07T15:10:35;4.47;;;3.83;;
39190;SDS011;24916;51.676;6.614;2024-03-07T15:13:01;4.70;;;4.03;;
39190;SDS011;24916;51.676;6.614;2024-03-07T15:15:27;4.75;;;3.60;;
39190;SDS011;24916;51.676;6.614;2024-03-07T15:17:56;4.53;;;3.85;;
39190;SDS011;24916;51.676;6.614;2024-03-07T15:20:21;4.07;;;3.67;;
39190;SDS011;24916;51.676;6.614;2024-03-07T15:23:01;4.45;;;3.75;;
39190;SDS011;24916;51.676;6.614;2024-03-07T15:25:27;4.55;;;3.97;;